sensor_id;sensor_type;location;lat;lon;timestamp;temperature;humidity
66328;DHT22;53133;52.862;6.602;2023-02-01T00:00:32;6.50;99.90
66328;DHT22;53133;52.862;6.602;2023-02-01T00:03:00;6.50;99.90
66328;DHT22;53133;52.862;6.602;2023-02-01T00:05:25;6.50;99.90
66328;DHT22;53133;52.862;6.602;2023-02-01T00:07:51;6.50;99.90
66328;DHT22;53133;52.862;6.602;2023-02-01T00:10:17;6.60;99.90
66328;DHT22;53133;52.862;6.602;2023-02-01T00:12:43;6.60;99.90
66328;DHT22;53133;52.862;6.602;2023-02-01T00:15:09;6.60;99.90
66328;DHT22;53133;52.862;6.602;2023-02-01T00:17:34;6.60;99.90
66328;DHT22;53133;52.862;6.602;2023-02-01T00:20:00;6.50;99.90
66328;DHT22;53133;52.862;6.602;2023-02-01T00:22:26;6.60;99.90
66328;DHT22;53133;52.862;6.602;2023-02-01T00:24:51;6.60;99.90
66328;DHT22;53133;52.862;6.602;2023-02-01T00:27:17;6.60;99.90
66328;DHT22;53133;52.862;6.602;2023-02-01T00:29:45;6.60;99.90
66328;DHT22;53133;52.862;6.602;2023-02-01T00:32:11;6.60;99.90
66328;DHT22;53133;52.862;6.602;2023-02-01T00:34:40;6.60;99.90
66328;DHT22;53133;52.862;6.602;2023-02-01T00:37:05;6.60;99.90
66328;DHT22;53133;52.862;6.602;2023-02-01T00:39:31;6.60;99.90
66328;DHT22;53133;52.862;6.602;2023-02-01T00:42:00;6.60;99.90
66328;DHT22;53133;52.862;6.602;2023-02-01T00:44:27;6.60;99.90
66328;DHT22;53133;52.862;6.602;2023-02-01T00:46:53;6.60;99.90
66328;DHT22;53133;52.862;6.602;2023-02-01T00:49:18;6.60;99.90
66328;DHT22;53133;52.862;6.602;2023-02-01T00:51:44;6.60;99.90
66328;DHT22;53133;52.862;6.602;2023-02-01T00:54:09;6.60;99.90
66328;DHT22;53133;52.862;6.602;2023-02-01T00:56:35;6.60;99.90
66328;DHT22;53133;52.862;6.602;2023-02-01T00:59:03;6.60;99.90
66328;DHT22;53133;52.862;6.602;2023-02-01T01:01:29;6.60;99.90
66328;DHT22;53133;52.862;6.602;2023-02-01T01:03:57;6.60;99.90
66328;DHT22;53133;52.862;6.602;2023-02-01T01:06:28;6.60;99.90
66328;DHT22;53133;52.862;6.602;2023-02-01T01:08:58;6.60;99.90
66328;DHT22;53133;52.862;6.602;2023-02-01T01:11:27;6.60;99.90
66328;DHT22;53133;52.862;6.602;2023-02-01T01:13:54;6.60;99.90
66328;DHT22;53133;52.862;6.602;2023-02-01T01:16:22;6.60;99.90
66328;DHT22;53133;52.862;6.602;2023-02-01T01:18:48;6.60;99.90
66328;DHT22;53133;52.862;6.602;2023-02-01T01:21:15;6.60;99.90
66328;DHT22;53133;52.862;6.602;2023-02-01T01:23:41;6.70;99.90
66328;DHT22;53133;52.862;6.602;2023-02-01T01:26:09;6.60;99.90
66328;DHT22;53133;52.862;6.602;2023-02-01T01:28:35;6.70;99.90
66328;DHT22;53133;52.862;6.602;2023-02-01T01:31:01;6.70;99.90
66328;DHT22;53133;52.862;6.602;2023-02-01T01:33:27;6.60;99.90
66328;DHT22;53133;52.862;6.602;2023-02-01T01:35:52;6.70;99.90
66328;DHT22;53133;52.862;6.602;2023-02-01T01:38:18;6.70;99.90
66328;DHT22;53133;52.862;6.602;2023-02-01T01:40:47;6.70;99.90
66328;DHT22;53133;52.862;6.602;2023-02-01T01:43:17;6.70;99.90
66328;DHT22;53133;52.862;6.602;2023-02-01T01:45:45;6.70;99.90
66328;DHT22;53133;52.862;6.602;2023-02-01T01:48:29;6.70;99.90
66328;DHT22;53133;52.862;6.602;2023-02-01T01:51:04;6.70;99.90
66328;DHT22;53133;52.862;6.602;2023-02-01T01:53:37;6.70;99.90
66328;DHT22;53133;52.862;6.602;2023-02-01T01:56:03;6.70;99.90
66328;DHT22;53133;52.862;6.602;2023-02-01T01:58:30;6.70;99.90
66328;DHT22;53133;52.862;6.602;2023-02-01T02:00:58;6.70;99.90
66328;DHT22;53133;52.862;6.602;2023-02-01T02:03:39;6.70;99.90
66328;DHT22;53133;52.862;6.602;2023-02-01T02:06:15;6.70;99.90
66328;DHT22;53133;52.862;6.602;2023-02-01T02:08:41;6.70;99.90
66328;DHT22;53133;52.862;6.602;2023-02-01T02:11:07;6.70;99.90
66328;DHT22;53133;52.862;6.602;2023-02-01T02:13:41;6.70;99.90
66328;DHT22;53133;52.862;6.602;2023-02-01T02:33:20;6.50;99.90
66328;DHT22;53133;52.862;6.602;2023-02-01T02:35:51;6.50;99.90
66328;DHT22;53133;52.862;6.602;2023-02-01T02:38:32;6.40;99.90
66328;DHT22;53133;52.862;6.602;2023-02-01T02:43:48;6.40;99.90
66328;DHT22;53133;52.862;6.602;2023-02-01T02:46:39;6.40;99.90
66328;DHT22;53133;52.862;6.602;2023-02-01T02:52:08;6.30;99.90
66328;DHT22;53133;52.862;6.602;2023-02-01T02:54:56;6.30;99.90
66328;DHT22;53133;52.862;6.602;2023-02-01T02:57:36;6.30;99.90
66328;DHT22;53133;52.862;6.602;2023-02-01T03:00:27;6.30;99.90
66328;DHT22;53133;52.862;6.602;2023-02-01T03:03:12;6.30;99.90
66328;DHT22;53133;52.862;6.602;2023-02-01T03:05:56;6.30;99.90
66328;DHT22;53133;52.862;6.602;2023-02-01T03:08:29;6.30;99.90
66328;DHT22;53133;52.862;6.602;2023-02-01T03:11:05;6.30;99.90
66328;DHT22;53133;52.862;6.602;2023-02-01T03:18:49;6.30;99.90
66328;DHT22;53133;52.862;6.602;2023-02-01T03:21:20;6.30;99.90
66328;DHT22;53133;52.862;6.602;2023-02-01T03:23:48;6.40;99.90
66328;DHT22;53133;52.862;6.602;2023-02-01T03:26:17;6.40;99.90
66328;DHT22;53133;52.862;6.602;2023-02-01T03:28:49;6.30;99.90
66328;DHT22;53133;52.862;6.602;2023-02-01T03:31:17;6.40;99.90
66328;DHT22;53133;52.862;6.602;2023-02-01T03:33:43;6.30;99.90
66328;DHT22;53133;52.862;6.602;2023-02-01T03:46:59;6.40;99.90
66328;DHT22;53133;52.862;6.602;2023-02-01T03:49:30;6.40;99.90
66328;DHT22;53133;52.862;6.602;2023-02-01T03:51:58;6.50;99.90
66328;DHT22;53133;52.862;6.602;2023-02-01T03:54:26;6.50;99.90
66328;DHT22;53133;52.862;6.602;2023-02-01T03:56:54;6.40;99.90
66328;DHT22;53133;52.862;6.602;2023-02-01T03:59:21;6.50;99.90
66328;DHT22;53133;52.862;6.602;2023-02-01T04:01:47;6.40;99.90
66328;DHT22;53133;52.862;6.602;2023-02-01T04:04:12;6.40;99.90
66328;DHT22;53133;52.862;6.602;2023-02-01T04:06:46;6.50;99.90
66328;DHT22;53133;52.862;6.602;2023-02-01T04:09:11;6.50;99.90
66328;DHT22;53133;52.862;6.602;2023-02-01T04:11:37;6.50;99.90
66328;DHT22;53133;52.862;6.602;2023-02-01T04:14:03;6.40;99.90
66328;DHT22;53133;52.862;6.602;2023-02-01T04:16:30;6.40;99.90
66328;DHT22;53133;52.862;6.602;2023-02-01T04:18:57;6.40;99.90
66328;DHT22;53133;52.862;6.602;2023-02-01T04:21:22;6.40;99.90
66328;DHT22;53133;52.862;6.602;2023-02-01T04:23:48;6.30;99.90
66328;DHT22;53133;52.862;6.602;2023-02-01T04:26:14;6.40;99.90
66328;DHT22;53133;52.862;6.602;2023-02-01T04:28:41;6.30;99.90
66328;DHT22;53133;52.862;6.602;2023-02-01T04:31:07;6.30;99.90
66328;DHT22;53133;52.862;6.602;2023-02-01T04:33:33;6.30;99.90
66328;DHT22;53133;52.862;6.602;2023-02-01T04:35:58;6.30;99.90
66328;DHT22;53133;52.862;6.602;2023-02-01T04:38:24;6.30;99.90
66328;DHT22;53133;52.862;6.602;2023-02-01T04:40:49;6.30;99.90
66328;DHT22;53133;52.862;6.602;2023-02-01T04:43:16;6.30;99.90
66328;DHT22;53133;52.862;6.602;2023-02-01T04:45:47;6.30;99.90
66328;DHT22;53133;52.862;6.602;2023-02-01T04:48:13;6.30;99.90
66328;DHT22;53133;52.862;6.602;2023-02-01T04:50:38;6.30;99.90
66328;DHT22;53133;52.862;6.602;2023-02-01T04:53:04;6.20;99.90
66328;DHT22;53133;52.862;6.602;2023-02-01T04:55:29;6.30;99.90
66328;DHT22;53133;52.862;6.602;2023-02-01T04:57:56;6.30;99.90
66328;DHT22;53133;52.862;6.602;2023-02-01T05:00:25;6.30;99.90
66328;DHT22;53133;52.862;6.602;2023-02-01T05:02:50;6.30;99.90
66328;DHT22;53133;52.862;6.602;2023-02-01T05:05:16;6.30;99.90
66328;DHT22;53133;52.862;6.602;2023-02-01T05:07:41;6.30;99.90
66328;DHT22;53133;52.862;6.602;2023-02-01T05:10:10;6.30;99.90
66328;DHT22;53133;52.862;6.602;2023-02-01T05:12:35;6.40;99.90
66328;DHT22;53133;52.862;6.602;2023-02-01T05:15:19;6.30;99.90
66328;DHT22;53133;52.862;6.602;2023-02-01T05:17:45;6.30;99.90
66328;DHT22;53133;52.862;6.602;2023-02-01T05:20:11;6.30;99.90
66328;DHT22;53133;52.862;6.602;2023-02-01T05:22:36;6.30;99.90
66328;DHT22;53133;52.862;6.602;2023-02-01T05:25:05;6.30;99.90
66328;DHT22;53133;52.862;6.602;2023-02-01T05:27:31;6.30;99.90
66328;DHT22;53133;52.862;6.602;2023-02-01T05:29:56;6.30;99.90
66328;DHT22;53133;52.862;6.602;2023-02-01T05:32:22;6.40;99.90
66328;DHT22;53133;52.862;6.602;2023-02-01T05:34:47;6.30;99.90
66328;DHT22;53133;52.862;6.602;2023-02-01T05:37:13;6.40;99.90
66328;DHT22;53133;52.862;6.602;2023-02-01T05:39:39;6.40;99.90
66328;DHT22;53133;52.862;6.602;2023-02-01T05:42:04;6.40;99.90
66328;DHT22;53133;52.862;6.602;2023-02-01T05:44:33;6.40;99.90
66328;DHT22;53133;52.862;6.602;2023-02-01T05:46:58;6.40;99.90
66328;DHT22;53133;52.862;6.602;2023-02-01T05:49:24;6.40;99.90
66328;DHT22;53133;52.862;6.602;2023-02-01T05:51:49;6.40;99.90
66328;DHT22;53133;52.862;6.602;2023-02-01T05:54:15;6.40;99.90
66328;DHT22;53133;52.862;6.602;2023-02-01T05:56:40;6.40;99.90
66328;DHT22;53133;52.862;6.602;2023-02-01T05:59:06;6.50;99.90
66328;DHT22;53133;52.862;6.602;2023-02-01T06:01:32;6.50;99.90
66328;DHT22;53133;52.862;6.602;2023-02-01T06:03:57;6.50;99.90
66328;DHT22;53133;52.862;6.602;2023-02-01T06:06:23;6.50;99.90
66328;DHT22;53133;52.862;6.602;2023-02-01T06:08:48;6.50;99.90
66328;DHT22;53133;52.862;6.602;2023-02-01T06:11:14;6.50;99.90
66328;DHT22;53133;52.862;6.602;2023-02-01T06:13:39;6.50;99.90
66328;DHT22;53133;52.862;6.602;2023-02-01T06:16:05;6.50;99.90
66328;DHT22;53133;52.862;6.602;2023-02-01T06:18:35;6.60;99.90
66328;DHT22;53133;52.862;6.602;2023-02-01T06:21:01;6.50;99.90
66328;DHT22;53133;52.862;6.602;2023-02-01T06:23:29;6.60;99.90
66328;DHT22;53133;52.862;6.602;2023-02-01T06:25:59;6.50;99.90
66328;DHT22;53133;52.862;6.602;2023-02-01T06:28:26;6.50;99.90
66328;DHT22;53133;52.862;6.602;2023-02-01T06:30:53;6.50;99.90
66328;DHT22;53133;52.862;6.602;2023-02-01T06:33:18;6.50;99.90
66328;DHT22;53133;52.862;6.602;2023-02-01T06:35:44;6.50;99.90
66328;DHT22;53133;52.862;6.602;2023-02-01T06:38:13;6.50;99.90
66328;DHT22;53133;52.862;6.602;2023-02-01T06:40:39;6.50;99.90
66328;DHT22;53133;52.862;6.602;2023-02-01T06:43:06;6.60;99.90
66328;DHT22;53133;52.862;6.602;2023-02-01T06:45:32;6.50;99.90
66328;DHT22;53133;52.862;6.602;2023-02-01T06:47:58;6.60;99.90
66328;DHT22;53133;52.862;6.602;2023-02-01T06:50:25;6.60;99.90
66328;DHT22;53133;52.862;6.602;2023-02-01T06:52:51;6.60;99.90
66328;DHT22;53133;52.862;6.602;2023-02-01T06:55:17;6.50;99.90
66328;DHT22;53133;52.862;6.602;2023-02-01T06:57:42;6.60;99.90
66328;DHT22;53133;52.862;6.602;2023-02-01T07:00:08;6.60;99.90
66328;DHT22;53133;52.862;6.602;2023-02-01T07:02:34;6.60;99.90
66328;DHT22;53133;52.862;6.602;2023-02-01T07:05:00;6.60;99.90
66328;DHT22;53133;52.862;6.602;2023-02-01T07:07:25;6.60;99.90
66328;DHT22;53133;52.862;6.602;2023-02-01T07:09:51;6.60;99.90
66328;DHT22;53133;52.862;6.602;2023-02-01T07:12:20;6.60;99.90
66328;DHT22;53133;52.862;6.602;2023-02-01T07:14:45;6.60;99.90
66328;DHT22;53133;52.862;6.602;2023-02-01T07:17:11;6.60;99.90
66328;DHT22;53133;52.862;6.602;2023-02-01T07:19:40;6.60;99.90
66328;DHT22;53133;52.862;6.602;2023-02-01T07:22:05;6.60;99.90
66328;DHT22;53133;52.862;6.602;2023-02-01T07:24:31;6.60;99.90
66328;DHT22;53133;52.862;6.602;2023-02-01T07:26:56;6.60;99.90
66328;DHT22;53133;52.862;6.602;2023-02-01T07:29:22;6.70;99.90
66328;DHT22;53133;52.862;6.602;2023-02-01T07:31:47;6.70;99.90
66328;DHT22;53133;52.862;6.602;2023-02-01T07:34:13;6.70;99.90
66328;DHT22;53133;52.862;6.602;2023-02-01T07:36:39;6.70;99.90
66328;DHT22;53133;52.862;6.602;2023-02-01T07:39:04;6.70;99.90
66328;DHT22;53133;52.862;6.602;2023-02-01T07:41:30;6.70;99.90
66328;DHT22;53133;52.862;6.602;2023-02-01T07:43:56;6.70;99.90
66328;DHT22;53133;52.862;6.602;2023-02-01T07:46:22;6.70;99.90
66328;DHT22;53133;52.862;6.602;2023-02-01T07:48:48;6.70;99.90
66328;DHT22;53133;52.862;6.602;2023-02-01T07:51:18;6.70;99.90
66328;DHT22;53133;52.862;6.602;2023-02-01T07:53:44;6.70;99.90
66328;DHT22;53133;52.862;6.602;2023-02-01T07:56:15;6.70;99.90
66328;DHT22;53133;52.862;6.602;2023-02-01T07:58:41;6.80;99.90
66328;DHT22;53133;52.862;6.602;2023-02-01T08:01:23;6.80;99.90
66328;DHT22;53133;52.862;6.602;2023-02-01T08:04:00;6.70;99.90
66328;DHT22;53133;52.862;6.602;2023-02-01T08:06:29;6.70;99.90
66328;DHT22;53133;52.862;6.602;2023-02-01T08:08:55;6.70;99.90
66328;DHT22;53133;52.862;6.602;2023-02-01T08:11:21;6.70;99.90
66328;DHT22;53133;52.862;6.602;2023-02-01T08:13:48;6.70;99.90
66328;DHT22;53133;52.862;6.602;2023-02-01T08:16:14;6.70;99.90
66328;DHT22;53133;52.862;6.602;2023-02-01T08:18:41;6.70;99.90
66328;DHT22;53133;52.862;6.602;2023-02-01T08:23:37;6.70;99.90
66328;DHT22;53133;52.862;6.602;2023-02-01T08:26:09;6.70;99.90
66328;DHT22;53133;52.862;6.602;2023-02-01T08:28:36;6.70;99.90
66328;DHT22;53133;52.862;6.602;2023-02-01T08:31:12;6.70;99.90
66328;DHT22;53133;52.862;6.602;2023-02-01T08:33:40;6.70;99.90
66328;DHT22;53133;52.862;6.602;2023-02-01T08:36:08;6.70;99.90
66328;DHT22;53133;52.862;6.602;2023-02-01T08:38:38;6.80;99.90
66328;DHT22;53133;52.862;6.602;2023-02-01T08:41:12;6.80;99.90
66328;DHT22;53133;52.862;6.602;2023-02-01T08:43:39;6.80;99.90
66328;DHT22;53133;52.862;6.602;2023-02-01T08:46:06;6.80;99.90
66328;DHT22;53133;52.862;6.602;2023-02-01T08:48:32;6.80;99.90
66328;DHT22;53133;52.862;6.602;2023-02-01T08:51:05;6.80;99.90
66328;DHT22;53133;52.862;6.602;2023-02-01T08:53:31;6.80;99.90
66328;DHT22;53133;52.862;6.602;2023-02-01T08:55:57;6.80;99.90
66328;DHT22;53133;52.862;6.602;2023-02-01T08:58:23;6.90;99.90
66328;DHT22;53133;52.862;6.602;2023-02-01T09:00:48;6.90;99.90
66328;DHT22;53133;52.862;6.602;2023-02-01T09:03:15;6.90;99.90
66328;DHT22;53133;52.862;6.602;2023-02-01T09:05:40;6.90;99.90
66328;DHT22;53133;52.862;6.602;2023-02-01T09:08:07;6.90;99.90
66328;DHT22;53133;52.862;6.602;2023-02-01T09:10:33;6.90;99.90
66328;DHT22;53133;52.862;6.602;2023-02-01T09:12:59;7.00;99.90
66328;DHT22;53133;52.862;6.602;2023-02-01T09:15:25;7.00;99.90
66328;DHT22;53133;52.862;6.602;2023-02-01T09:17:51;6.90;99.90
66328;DHT22;53133;52.862;6.602;2023-02-01T09:20:16;7.00;99.90
66328;DHT22;53133;52.862;6.602;2023-02-01T09:22:42;7.00;99.90
66328;DHT22;53133;52.862;6.602;2023-02-01T09:25:08;7.00;99.90
66328;DHT22;53133;52.862;6.602;2023-02-01T09:27:34;7.00;99.90
66328;DHT22;53133;52.862;6.602;2023-02-01T09:30:00;7.00;99.90
66328;DHT22;53133;52.862;6.602;2023-02-01T09:32:26;7.00;99.90
66328;DHT22;53133;52.862;6.602;2023-02-01T09:34:52;7.00;99.90
66328;DHT22;53133;52.862;6.602;2023-02-01T09:37:18;7.00;99.90
66328;DHT22;53133;52.862;6.602;2023-02-01T09:39:44;7.00;99.90
66328;DHT22;53133;52.862;6.602;2023-02-01T09:42:18;7.00;99.90
66328;DHT22;53133;52.862;6.602;2023-02-01T09:45:20;7.00;99.90
66328;DHT22;53133;52.862;6.602;2023-02-01T09:47:55;7.00;99.90
66328;DHT22;53133;52.862;6.602;2023-02-01T09:50:35;7.00;99.90
66328;DHT22;53133;52.862;6.602;2023-02-01T09:53:09;7.00;99.90
66328;DHT22;53133;52.862;6.602;2023-02-01T09:55:41;7.00;99.90
66328;DHT22;53133;52.862;6.602;2023-02-01T09:58:19;7.00;99.90
66328;DHT22;53133;52.862;6.602;2023-02-01T10:00:57;7.00;99.90
66328;DHT22;53133;52.862;6.602;2023-02-01T10:03:32;7.00;99.90
66328;DHT22;53133;52.862;6.602;2023-02-01T10:06:20;7.00;99.90
66328;DHT22;53133;52.862;6.602;2023-02-01T10:11:42;6.90;99.90
66328;DHT22;53133;52.862;6.602;2023-02-01T10:19:27;6.80;99.90
66328;DHT22;53133;52.862;6.602;2023-02-01T10:22:00;6.80;99.90
66328;DHT22;53133;52.862;6.602;2023-02-01T10:27:17;6.70;99.90
66328;DHT22;53133;52.862;6.602;2023-02-01T10:29:45;6.60;99.90
66328;DHT22;53133;52.862;6.602;2023-02-01T10:32:17;6.60;99.90
66328;DHT22;53133;52.862;6.602;2023-02-01T10:34:48;6.60;99.90
66328;DHT22;53133;52.862;6.602;2023-02-01T10:37:27;6.60;99.90
66328;DHT22;53133;52.862;6.602;2023-02-01T10:39:55;6.60;99.90
66328;DHT22;53133;52.862;6.602;2023-02-01T10:42:25;6.60;99.90
66328;DHT22;53133;52.862;6.602;2023-02-01T10:44:52;6.60;99.90
66328;DHT22;53133;52.862;6.602;2023-02-01T10:47:19;6.60;99.90
66328;DHT22;53133;52.862;6.602;2023-02-01T10:53:05;6.60;99.90
66328;DHT22;53133;52.862;6.602;2023-02-01T10:55:34;6.60;99.90
66328;DHT22;53133;52.862;6.602;2023-02-01T10:58:03;6.50;99.90
66328;DHT22;53133;52.862;6.602;2023-02-01T11:00:59;6.60;99.90
66328;DHT22;53133;52.862;6.602;2023-02-01T11:03:43;6.60;99.90
66328;DHT22;53133;52.862;6.602;2023-02-01T11:06:19;6.50;99.90
66328;DHT22;53133;52.862;6.602;2023-02-01T11:09:01;6.60;99.90
66328;DHT22;53133;52.862;6.602;2023-02-01T11:14:17;6.60;99.90
66328;DHT22;53133;52.862;6.602;2023-02-01T11:16:49;6.60;99.90
66328;DHT22;53133;52.862;6.602;2023-02-01T11:19:16;6.70;99.90
66328;DHT22;53133;52.862;6.602;2023-02-01T11:21:43;6.70;99.90
66328;DHT22;53133;52.862;6.602;2023-02-01T11:24:29;6.70;99.90
66328;DHT22;53133;52.862;6.602;2023-02-01T11:26:57;6.70;99.90
66328;DHT22;53133;52.862;6.602;2023-02-01T11:29:25;6.70;99.90
66328;DHT22;53133;52.862;6.602;2023-02-01T11:31:56;6.70;99.90
66328;DHT22;53133;52.862;6.602;2023-02-01T11:34:25;6.80;99.90
66328;DHT22;53133;52.862;6.602;2023-02-01T11:36:53;6.80;99.90
66328;DHT22;53133;52.862;6.602;2023-02-01T11:39:27;6.80;99.90
66328;DHT22;53133;52.862;6.602;2023-02-01T11:42:14;6.80;99.90
66328;DHT22;53133;52.862;6.602;2023-02-01T11:44:42;6.80;99.90
66328;DHT22;53133;52.862;6.602;2023-02-01T11:47:25;6.80;99.90
66328;DHT22;53133;52.862;6.602;2023-02-01T11:49:53;6.80;99.90
66328;DHT22;53133;52.862;6.602;2023-02-01T11:53:25;6.80;99.90
66328;DHT22;53133;52.862;6.602;2023-02-01T11:58:38;6.80;99.90
66328;DHT22;53133;52.862;6.602;2023-02-01T12:01:41;6.70;99.90
66328;DHT22;53133;52.862;6.602;2023-02-01T12:13:07;6.80;99.90
66328;DHT22;53133;52.862;6.602;2023-02-01T12:15:40;6.80;99.90
66328;DHT22;53133;52.862;6.602;2023-02-01T12:29:29;6.70;99.90
66328;DHT22;53133;52.862;6.602;2023-02-01T12:35:01;6.80;99.90
66328;DHT22;53133;52.862;6.602;2023-02-01T12:37:51;6.90;99.90
66328;DHT22;53133;52.862;6.602;2023-02-01T12:40:43;6.90;99.90
66328;DHT22;53133;52.862;6.602;2023-02-01T12:43:17;7.00;99.90
66328;DHT22;53133;52.862;6.602;2023-02-01T12:45:57;7.10;99.90
66328;DHT22;53133;52.862;6.602;2023-02-01T12:48:29;7.10;99.90
66328;DHT22;53133;52.862;6.602;2023-02-01T12:51:06;7.10;99.90
66328;DHT22;53133;52.862;6.602;2023-02-01T12:53:52;7.20;99.90
66328;DHT22;53133;52.862;6.602;2023-02-01T12:58:53;7.30;99.90
66328;DHT22;53133;52.862;6.602;2023-02-01T13:01:26;7.40;99.90
66328;DHT22;53133;52.862;6.602;2023-02-01T13:04:05;7.40;99.90
66328;DHT22;53133;52.862;6.602;2023-02-01T13:06:50;7.50;99.90
66328;DHT22;53133;52.862;6.602;2023-02-01T13:11:55;7.50;99.90
66328;DHT22;53133;52.862;6.602;2023-02-01T13:16:52;7.50;99.90
66328;DHT22;53133;52.862;6.602;2023-02-01T13:19:28;7.60;99.90
66328;DHT22;53133;52.862;6.602;2023-02-01T13:22:09;7.50;99.90
66328;DHT22;53133;52.862;6.602;2023-02-01T13:24:43;7.50;99.90
66328;DHT22;53133;52.862;6.602;2023-02-01T13:27:15;7.50;99.90
66328;DHT22;53133;52.862;6.602;2023-02-01T13:29:56;7.50;99.90
66328;DHT22;53133;52.862;6.602;2023-02-01T13:35:19;7.60;99.90
66328;DHT22;53133;52.862;6.602;2023-02-01T13:40:45;7.60;99.90
66328;DHT22;53133;52.862;6.602;2023-02-01T13:43:28;7.60;99.90
66328;DHT22;53133;52.862;6.602;2023-02-01T13:45:57;7.60;99.90
66328;DHT22;53133;52.862;6.602;2023-02-01T13:48:49;7.60;99.90
66328;DHT22;53133;52.862;6.602;2023-02-01T13:51:28;7.60;99.90
66328;DHT22;53133;52.862;6.602;2023-02-01T13:53:57;7.60;99.90
66328;DHT22;53133;52.862;6.602;2023-02-01T13:56:24;7.60;99.90
66328;DHT22;53133;52.862;6.602;2023-02-01T13:58:50;7.70;99.90
66328;DHT22;53133;52.862;6.602;2023-02-01T14:03:55;7.70;99.90
66328;DHT22;53133;52.862;6.602;2023-02-01T14:16:39;7.90;99.90
66328;DHT22;53133;52.862;6.602;2023-02-01T14:19:08;7.80;99.90
66328;DHT22;53133;52.862;6.602;2023-02-01T14:21:42;7.80;99.90
66328;DHT22;53133;52.862;6.602;2023-02-01T14:26:47;7.80;99.90
66328;DHT22;53133;52.862;6.602;2023-02-01T14:34:19;7.80;99.90
66328;DHT22;53133;52.862;6.602;2023-02-01T14:36:52;7.80;99.90
66328;DHT22;53133;52.862;6.602;2023-02-01T14:55:45;7.80;99.90
66328;DHT22;53133;52.862;6.602;2023-02-01T15:00:58;7.80;99.90
66328;DHT22;53133;52.862;6.602;2023-02-01T15:06:30;7.80;99.90
66328;DHT22;53133;52.862;6.602;2023-02-01T15:09:11;7.80;99.90
66328;DHT22;53133;52.862;6.602;2023-02-01T15:14:32;7.80;99.90
66328;DHT22;53133;52.862;6.602;2023-02-01T15:16:59;7.90;99.90
66328;DHT22;53133;52.862;6.602;2023-02-01T15:19:26;7.90;99.90
66328;DHT22;53133;52.862;6.602;2023-02-01T15:21:54;7.90;99.90
66328;DHT22;53133;52.862;6.602;2023-02-01T15:24:22;7.90;99.90
66328;DHT22;53133;52.862;6.602;2023-02-01T15:26:49;7.90;99.90
66328;DHT22;53133;52.862;6.602;2023-02-01T15:29:16;7.90;99.90
66328;DHT22;53133;52.862;6.602;2023-02-01T15:31:48;7.90;99.90
66328;DHT22;53133;52.862;6.602;2023-02-01T15:34:14;7.90;99.90
66328;DHT22;53133;52.862;6.602;2023-02-01T15:36:41;7.90;99.90
66328;DHT22;53133;52.862;6.602;2023-02-01T15:39:23;7.90;99.90
66328;DHT22;53133;52.862;6.602;2023-02-01T15:41:56;7.90;99.90
66328;DHT22;53133;52.862;6.602;2023-02-01T15:44:34;7.90;99.90
66328;DHT22;53133;52.862;6.602;2023-02-01T15:47:16;7.90;99.90
66328;DHT22;53133;52.862;6.602;2023-02-01T15:49:44;7.90;99.90
66328;DHT22;53133;52.862;6.602;2023-02-01T15:52:42;7.90;99.90
66328;DHT22;53133;52.862;6.602;2023-02-01T15:57:58;7.90;99.90
66328;DHT22;53133;52.862;6.602;2023-02-01T16:00:25;7.80;99.90
66328;DHT22;53133;52.862;6.602;2023-02-01T16:02:58;7.90;99.90
66328;DHT22;53133;52.862;6.602;2023-02-01T16:08:09;7.90;99.90
66328;DHT22;53133;52.862;6.602;2023-02-01T16:10:41;7.80;99.90
66328;DHT22;53133;52.862;6.602;2023-02-01T16:13:07;7.80;99.90
66328;DHT22;53133;52.862;6.602;2023-02-01T16:15:33;7.80;99.90
66328;DHT22;53133;52.862;6.602;2023-02-01T16:17:59;7.80;99.90
66328;DHT22;53133;52.862;6.602;2023-02-01T16:20:24;7.80;99.90
66328;DHT22;53133;52.862;6.602;2023-02-01T16:22:50;7.80;99.90
66328;DHT22;53133;52.862;6.602;2023-02-01T16:25:15;7.80;99.90
66328;DHT22;53133;52.862;6.602;2023-02-01T16:27:41;7.70;99.90
66328;DHT22;53133;52.862;6.602;2023-02-01T16:30:07;7.70;99.90
66328;DHT22;53133;52.862;6.602;2023-02-01T16:32:36;7.80;99.90
66328;DHT22;53133;52.862;6.602;2023-02-01T16:35:21;7.70;99.90
66328;DHT22;53133;52.862;6.602;2023-02-01T16:37:48;7.70;99.90
66328;DHT22;53133;52.862;6.602;2023-02-01T16:40:15;7.70;99.90
66328;DHT22;53133;52.862;6.602;2023-02-01T16:42:41;7.60;99.90
66328;DHT22;53133;52.862;6.602;2023-02-01T16:45:07;7.60;99.90
66328;DHT22;53133;52.862;6.602;2023-02-01T16:47:36;7.60;99.90
66328;DHT22;53133;52.862;6.602;2023-02-01T16:50:03;7.60;99.90
66328;DHT22;53133;52.862;6.602;2023-02-01T16:52:29;7.50;99.90
66328;DHT22;53133;52.862;6.602;2023-02-01T16:54:54;7.50;99.90
66328;DHT22;53133;52.862;6.602;2023-02-01T16:57:20;7.50;99.90
66328;DHT22;53133;52.862;6.602;2023-02-01T16:59:49;7.50;99.90
66328;DHT22;53133;52.862;6.602;2023-02-01T17:02:18;7.50;99.90
66328;DHT22;53133;52.862;6.602;2023-02-01T17:04:47;7.50;99.90
66328;DHT22;53133;52.862;6.602;2023-02-01T17:07:17;7.40;99.90
66328;DHT22;53133;52.862;6.602;2023-02-01T17:09:44;7.40;99.90
66328;DHT22;53133;52.862;6.602;2023-02-01T17:12:23;7.40;99.90
66328;DHT22;53133;52.862;6.602;2023-02-01T17:14:50;7.40;99.90
66328;DHT22;53133;52.862;6.602;2023-02-01T17:17:18;7.30;99.90
66328;DHT22;53133;52.862;6.602;2023-02-01T17:19:49;7.30;99.90
66328;DHT22;53133;52.862;6.602;2023-02-01T17:22:22;7.30;99.90
66328;DHT22;53133;52.862;6.602;2023-02-01T17:24:48;7.30;99.90
66328;DHT22;53133;52.862;6.602;2023-02-01T17:27:15;7.30;99.90
66328;DHT22;53133;52.862;6.602;2023-02-01T17:29:41;7.20;99.90
66328;DHT22;53133;52.862;6.602;2023-02-01T17:32:17;7.30;99.90
66328;DHT22;53133;52.862;6.602;2023-02-01T17:34:44;7.20;99.90
66328;DHT22;53133;52.862;6.602;2023-02-01T17:39:48;7.20;99.90
66328;DHT22;53133;52.862;6.602;2023-02-01T17:42:21;7.20;99.90
66328;DHT22;53133;52.862;6.602;2023-02-01T17:44:54;7.20;99.90
66328;DHT22;53133;52.862;6.602;2023-02-01T17:47:21;7.20;99.90
66328;DHT22;53133;52.862;6.602;2023-02-01T17:49:47;7.20;99.90
66328;DHT22;53133;52.862;6.602;2023-02-01T17:52:17;7.10;99.90
66328;DHT22;53133;52.862;6.602;2023-02-01T17:54:43;7.10;99.90
66328;DHT22;53133;52.862;6.602;2023-02-01T17:57:12;7.10;99.90
66328;DHT22;53133;52.862;6.602;2023-02-01T17:59:37;7.10;99.90
66328;DHT22;53133;52.862;6.602;2023-02-01T18:02:07;7.10;99.90
66328;DHT22;53133;52.862;6.602;2023-02-01T18:04:34;7.10;99.90
66328;DHT22;53133;52.862;6.602;2023-02-01T18:06:59;7.10;99.90
66328;DHT22;53133;52.862;6.602;2023-02-01T18:09:25;7.00;99.90
66328;DHT22;53133;52.862;6.602;2023-02-01T18:11:51;7.00;99.90
66328;DHT22;53133;52.862;6.602;2023-02-01T18:14:19;7.00;99.90
66328;DHT22;53133;52.862;6.602;2023-02-01T18:16:45;7.00;99.90
66328;DHT22;53133;52.862;6.602;2023-02-01T18:19:10;7.00;99.90
66328;DHT22;53133;52.862;6.602;2023-02-01T18:21:39;7.00;99.90
66328;DHT22;53133;52.862;6.602;2023-02-01T18:24:06;6.90;99.90
66328;DHT22;53133;52.862;6.602;2023-02-01T18:26:32;6.90;99.90
66328;DHT22;53133;52.862;6.602;2023-02-01T18:28:57;6.90;99.90
66328;DHT22;53133;52.862;6.602;2023-02-01T18:31:25;6.90;99.90